createdAt,value
2019-05-16T00:02:37.794Z,13.90
2019-05-16T00:07:43.251Z,13.80
2019-05-16T00:12:48.837Z,13.80
2019-05-16T00:17:54.336Z,13.70
2019-05-16T00:22:59.742Z,13.60
2019-05-16T00:28:05.270Z,13.70
2019-05-16T00:33:10.687Z,13.60
2019-05-16T00:38:18.265Z,13.60
2019-05-16T00:43:23.139Z,13.60
2019-05-16T00:48:28.975Z,13.50
2019-05-16T00:53:34.494Z,13.50
2019-05-16T00:58:40.758Z,13.60
2019-05-16T01:03:48.177Z,13.50
2019-05-16T01:08:53.415Z,13.60
2019-05-16T01:13:59.515Z,13.50
2019-05-16T01:19:23.828Z,13.60
2019-05-16T01:24:29.361Z,13.60
2019-05-16T01:29:34.828Z,13.60
2019-05-16T01:34:40.409Z,13.60
2019-05-16T01:39:48.267Z,13.50
2019-05-16T01:44:53.548Z,13.50
2019-05-16T01:49:58.927Z,13.50
2019-05-16T01:55:04.671Z,13.50
2019-05-16T02:00:10.389Z,13.50
2019-05-16T02:05:16.079Z,13.50
2019-05-16T02:10:21.748Z,13.50
2019-05-16T02:15:28.596Z,13.50
2019-05-16T02:20:35.695Z,13.50
2019-05-16T02:25:41.276Z,13.50
2019-05-16T02:30:46.816Z,13.60
2019-05-16T02:35:55.800Z,13.60
2019-05-16T02:41:02.633Z,13.50
2019-05-16T02:46:06.782Z,13.60
2019-05-16T02:51:12.700Z,13.50
2019-05-16T02:56:20.926Z,13.60
2019-05-16T03:01:25.392Z,13.50
2019-05-16T03:06:32.146Z,13.50
2019-05-16T03:11:41.670Z,13.50
2019-05-16T03:16:50.646Z,13.50
2019-05-16T03:21:56.996Z,13.50
2019-05-16T03:27:02.589Z,13.50
2019-05-16T03:32:13.276Z,13.50
2019-05-16T03:37:15.241Z,13.50
2019-05-16T03:42:20.790Z,13.60
2019-05-16T03:47:26.386Z,13.60
2019-05-16T03:52:32.063Z,13.60
2019-05-16T03:57:41.066Z,13.50
2019-05-16T04:02:45.884Z,13.60
2019-05-16T04:08:08.686Z,13.60
2019-05-16T04:13:01.100Z,13.50
2019-05-16T04:18:06.059Z,13.30
2019-05-16T04:23:11.481Z,13.20
2019-05-16T04:28:16.880Z,13.10
2019-05-16T04:33:22.833Z,13.10
2019-05-16T04:38:36.473Z,13.20
2019-05-16T04:43:35.431Z,13.30
2019-05-16T04:48:41.876Z,13.10
2019-05-16T04:53:50.724Z,13.10
2019-05-16T04:58:55.003Z,13.00
2019-05-16T05:04:10.334Z,13.10
2019-05-16T05:09:11.354Z,13.10
2019-05-16T05:14:16.494Z,13.30
2019-05-16T05:19:22.383Z,13.30
2019-05-16T05:24:30.149Z,13.50
2019-05-16T05:29:35.081Z,13.60
2019-05-16T05:34:40.783Z,13.60
2019-05-16T05:39:46.656Z,13.60
2019-05-16T05:44:52.054Z,13.70
2019-05-16T05:49:57.504Z,14.00
2019-05-16T05:55:03.139Z,14.10
2019-05-16T06:00:10.044Z,14.30
2019-05-16T06:05:15.712Z,14.50
2019-05-16T06:10:21.558Z,14.70
2019-05-16T06:15:27.281Z,14.90
2019-05-16T06:20:32.776Z,15.00
2019-05-16T06:25:40.596Z,15.20
2019-05-16T06:30:46.437Z,15.40
2019-05-16T06:35:52.185Z,15.40
2019-05-16T06:41:00.372Z,15.50
2019-05-16T06:46:05.356Z,15.50
2019-05-16T06:51:11.004Z,15.70
2019-05-16T06:56:16.683Z,15.70
2019-05-16T07:01:22.483Z,15.70
2019-05-16T07:06:50.292Z,15.80
2019-05-16T07:11:35.819Z,15.90
2019-05-16T07:16:41.677Z,16.20
2019-05-16T07:21:47.348Z,16.40
2019-05-16T07:26:53.018Z,16.30
2019-05-16T07:32:00.466Z,16.40
2019-05-16T07:37:06.155Z,16.50
2019-05-16T07:42:11.904Z,16.60
2019-05-16T07:47:20.119Z,16.60
2019-05-16T07:52:25.180Z,16.60
2019-05-16T07:57:30.882Z,16.80
2019-05-16T08:02:36.669Z,17.00
2019-05-16T08:07:42.599Z,17.10
2019-05-16T08:12:51.076Z,17.30
2019-05-16T08:17:55.858Z,17.20
2019-05-16T08:23:01.364Z,17.40
2019-05-16T08:28:06.778Z,17.40
2019-05-16T08:33:13.496Z,17.10
2019-05-16T08:38:21.474Z,17.00
2019-05-16T08:43:26.154Z,17.00
2019-05-16T08:48:32.279Z,17.20
2019-05-16T08:53:43.030Z,17.40
2019-05-16T08:58:45.424Z,17.40
2019-05-16T09:03:52.149Z,17.60
2019-05-16T09:09:05.060Z,17.40
2019-05-16T09:14:07.938Z,17.40
2019-05-16T09:19:12.793Z,17.50
2019-05-16T09:24:18.601Z,17.40
2019-05-16T09:29:24.244Z,17.70
2019-05-16T09:34:29.930Z,17.60
2019-05-16T09:39:37.150Z,17.50
2019-05-16T09:44:42.643Z,17.70
2019-05-16T09:49:48.146Z,17.60
2019-05-16T09:54:54.185Z,17.70
2019-05-16T09:59:59.798Z,18.00
2019-05-16T10:05:13.419Z,17.80
2019-05-16T10:10:16.902Z,18.00
2019-05-16T10:15:22.002Z,18.30
2019-05-16T10:20:27.579Z,18.40
2019-05-16T10:25:33.001Z,19.10
2019-05-16T10:30:38.464Z,18.80
2019-05-16T10:35:43.943Z,19.00
2019-05-16T10:40:49.629Z,19.10
2019-05-16T10:45:55.271Z,18.60
2019-05-16T10:51:00.790Z,18.60
2019-05-16T10:56:07.737Z,18.90
2019-05-16T11:01:24.307Z,19.20
2019-05-16T11:06:25.779Z,19.00
2019-05-16T11:11:27.997Z,19.50
2019-05-16T11:16:33.436Z,19.00
2019-05-16T11:21:39.686Z,19.70
2019-05-16T11:26:47.295Z,19.80
2019-05-16T11:31:52.459Z,20.40
2019-05-16T11:36:57.886Z,20.70
2019-05-16T11:42:03.277Z,21.10
2019-05-16T11:47:08.916Z,20.50
2019-05-16T11:52:14.500Z,20.50
2019-05-16T11:57:19.967Z,20.50
2019-05-16T12:02:27.805Z,21.10
2019-05-16T12:07:34.942Z,22.10
2019-05-16T12:12:40.273Z,21.90
2019-05-16T12:18:00.015Z,22.10
2019-05-16T12:22:53.088Z,21.60
2019-05-16T12:27:58.582Z,21.80
2019-05-16T12:33:03.979Z,21.40
2019-05-16T12:38:09.604Z,21.30
2019-05-16T12:43:17.773Z,21.90
2019-05-16T12:48:22.106Z,22.60
2019-05-16T12:53:31.841Z,22.80
2019-05-16T12:58:40.955Z,22.90
2019-05-16T13:03:43.489Z,23.20
2019-05-16T13:08:48.901Z,23.70
2019-05-16T13:14:03.372Z,23.80
2019-05-16T13:19:01.418Z,23.20
2019-05-16T13:24:07.078Z,22.80
2019-05-16T13:29:13.468Z,22.90
2019-05-16T13:34:18.888Z,24.10
2019-05-16T13:39:24.496Z,23.30
2019-05-16T13:44:29.961Z,23.40
2019-05-16T13:49:38.127Z,23.10
2019-05-16T13:54:42.628Z,23.70
2019-05-16T13:59:48.092Z,24.60
2019-05-16T14:04:53.481Z,25.10
2019-05-16T14:09:59.920Z,23.40
2019-05-16T14:15:07.894Z,24.50
2019-05-16T14:20:15.056Z,22.20
2019-05-16T14:25:21.123Z,22.30
2019-05-16T14:30:28.563Z,23.60
2019-05-16T14:35:33.830Z,23.50
2019-05-16T14:40:39.436Z,24.10
2019-05-16T14:45:46.644Z,21.60
2019-05-16T14:50:51.849Z,21.70
2019-05-16T14:55:57.847Z,21.00
2019-05-16T15:01:03.472Z,21.90
2019-05-16T15:06:09.148Z,22.10
2019-05-16T15:11:17.647Z,23.10
2019-05-16T15:16:21.665Z,22.90
2019-05-16T15:21:27.213Z,24.20
2019-05-16T15:26:32.622Z,24.10
2019-05-16T15:31:39.588Z,23.20
2019-05-16T15:36:46.734Z,23.60
2019-05-16T15:41:52.495Z,21.70
2019-05-16T15:46:59.973Z,20.80
2019-05-16T15:52:07.285Z,19.80
2019-05-16T15:57:12.847Z,20.20
2019-05-16T16:02:18.375Z,20.00
2019-05-16T16:07:23.820Z,20.20
2019-05-16T16:12:29.261Z,21.20
2019-05-16T16:17:37.678Z,21.20
2019-05-16T16:22:41.777Z,20.40
2019-05-16T16:27:47.216Z,22.10
2019-05-16T16:32:52.691Z,23.50
2019-05-16T16:37:58.240Z,24.00
2019-05-16T16:43:03.795Z,22.80
2019-05-16T16:48:09.320Z,21.60
2019-05-16T16:53:14.759Z,21.70
2019-05-16T16:58:20.157Z,19.90
2019-05-16T17:03:27.237Z,20.50
2019-05-16T17:08:32.980Z,20.10
2019-05-16T17:13:38.535Z,19.90
2019-05-16T17:18:44.380Z,20.90
2019-05-16T17:23:50.039Z,20.40
2019-05-16T17:28:57.140Z,19.90
2019-05-16T17:34:02.882Z,19.30
2019-05-16T17:39:08.911Z,18.90
2019-05-16T17:44:14.684Z,19.00
2019-05-16T17:49:20.027Z,19.00
2019-05-16T17:54:26.742Z,19.70
2019-05-16T17:59:33.447Z,19.90
2019-05-16T18:04:41.101Z,19.50
2019-05-16T18:09:48.480Z,19.40
2019-05-16T18:14:53.777Z,19.70
2019-05-16T18:19:59.288Z,19.40
2019-05-16T18:25:07.035Z,19.80
2019-05-16T18:30:16.480Z,19.40
2019-05-16T18:35:21.870Z,18.80
2019-05-16T18:40:27.767Z,18.30
2019-05-16T18:45:33.247Z,18.10
2019-05-16T18:50:39.311Z,18.10
2019-05-16T18:55:46.224Z,18.00
2019-05-16T19:00:52.099Z,18.00
2019-05-16T19:05:57.589Z,17.90
2019-05-16T19:11:03.443Z,18.00
2019-05-16T19:16:08.888Z,17.70
2019-05-16T19:21:16.707Z,17.70
2019-05-16T19:26:21.971Z,17.70
2019-05-16T19:31:28.138Z,17.70
2019-05-16T19:36:36.164Z,17.60
2019-05-16T19:41:41.389Z,17.50
2019-05-16T19:46:47.367Z,17.50
2019-05-16T19:51:52.765Z,17.50
2019-05-16T19:56:58.316Z,17.50
2019-05-16T20:02:04.026Z,17.50
2019-05-16T20:07:09.750Z,17.50
2019-05-16T20:12:16.862Z,17.60
2019-05-16T20:17:22.507Z,17.70
2019-05-16T20:22:28.140Z,17.50
2019-05-16T20:27:33.782Z,17.50
2019-05-16T20:32:39.372Z,17.60
2019-05-16T20:37:47.186Z,17.60
2019-05-16T20:42:52.551Z,17.40
2019-05-16T20:48:08.084Z,17.30
2019-05-16T20:53:07.271Z,17.30
2019-05-16T20:58:13.084Z,17.00
2019-05-16T21:03:18.783Z,17.00
2019-05-16T21:08:26.611Z,17.10
2019-05-16T21:13:32.636Z,16.90
2019-05-16T21:18:38.485Z,16.90
2019-05-16T21:23:46.866Z,16.90
2019-05-16T21:28:52.063Z,16.90
2019-05-16T21:33:57.589Z,16.40
2019-05-16T21:39:03.244Z,16.20
2019-05-16T21:44:08.765Z,16.10
2019-05-16T21:49:16.438Z,16.10
2019-05-16T21:54:21.447Z,15.90
2019-05-16T21:59:28.869Z,15.90
2019-05-16T22:04:36.621Z,15.90
2019-05-16T22:09:41.548Z,16.00
2019-05-16T22:14:51.599Z,15.90
2019-05-16T22:19:57.939Z,16.00
2019-05-16T22:25:03.499Z,15.90
2019-05-16T22:30:11.809Z,15.90
2019-05-16T22:35:19.004Z,15.80
2019-05-16T22:40:26.706Z,15.70
2019-05-16T22:45:32.012Z,15.70
2019-05-16T22:50:38.023Z,15.60
2019-05-16T22:55:43.791Z,15.50
2019-05-16T23:00:49.299Z,15.70
2019-05-16T23:05:56.585Z,15.80
2019-05-16T23:11:02.086Z,16.00
2019-05-16T23:16:07.613Z,16.10
2019-05-16T23:21:13.131Z,16.10
2019-05-16T23:26:18.570Z,16.20
2019-05-16T23:31:24.210Z,16.20
2019-05-16T23:36:29.615Z,16.20
2019-05-16T23:41:36.738Z,16.10
2019-05-16T23:46:42.177Z,16.10
2019-05-16T23:51:47.614Z,16.00
2019-05-16T23:56:53.304Z,16.10
